createdAt,value
2023-01-09T00:01:23.955Z,7.07
2023-01-09T00:03:52.084Z,6.88
2023-01-09T00:06:21.586Z,6.92
2023-01-09T00:08:49.433Z,6.94
2023-01-09T00:11:16.730Z,6.82
2023-01-09T00:13:43.631Z,6.88
2023-01-09T00:16:10.503Z,6.78
2023-01-09T00:18:37.405Z,6.76
2023-01-09T00:21:07.071Z,6.75
2023-01-09T00:23:36.629Z,6.53
2023-01-09T00:26:14.083Z,6.62
2023-01-09T00:28:41.229Z,6.57
2023-01-09T00:31:09.032Z,6.44
2023-01-09T00:33:42.480Z,6.50
2023-01-09T00:36:10.207Z,6.55
2023-01-09T00:38:37.547Z,6.58
2023-01-09T00:41:12.023Z,6.49
2023-01-09T00:43:46.637Z,6.35
2023-01-09T00:46:15.336Z,6.40
2023-01-09T00:48:45.130Z,6.33
2023-01-09T00:51:11.918Z,6.44
2023-01-09T00:53:41.665Z,6.36
2023-01-09T00:56:13.696Z,6.30
2023-01-09T00:58:42.615Z,6.16
2023-01-09T01:01:09.414Z,6.23
2023-01-09T01:03:36.285Z,6.30
2023-01-09T01:06:21.772Z,6.22
2023-01-09T01:08:48.644Z,6.18
2023-01-09T01:11:15.495Z,6.12
2023-01-09T01:13:42.254Z,6.15
2023-01-09T01:16:12.326Z,6.06
2023-01-09T01:18:40.188Z,6.14
2023-01-09T01:21:12.304Z,6.09
2023-01-09T01:23:39.622Z,6.01
2023-01-09T01:26:11.377Z,6.07
2023-01-09T01:28:38.251Z,6.13
2023-01-09T01:31:05.635Z,6.11
2023-01-09T01:33:34.324Z,5.99
2023-01-09T01:36:08.915Z,5.96
2023-01-09T01:38:37.197Z,6.05
2023-01-09T01:41:04.698Z,6.06
2023-01-09T01:43:56.605Z,6.02
2023-01-09T01:46:23.510Z,5.86
2023-01-09T01:48:56.050Z,5.90
2023-01-09T01:51:25.225Z,5.99
2023-01-09T01:53:55.957Z,5.92
2023-01-09T01:56:32.810Z,5.97
2023-01-09T01:59:03.677Z,5.91
2023-01-09T02:01:31.478Z,5.93
2023-01-09T02:04:01.643Z,5.91
2023-01-09T02:06:30.599Z,5.93
2023-01-09T02:08:57.725Z,5.78
2023-01-09T02:11:25.210Z,5.93
2023-01-09T02:13:52.694Z,5.91
2023-01-09T02:16:38.705Z,5.89
2023-01-09T02:19:14.339Z,5.88
2023-01-09T02:21:41.448Z,5.86
2023-01-09T02:24:25.093Z,5.80
2023-01-09T02:27:01.939Z,5.82
2023-01-09T02:30:07.265Z,5.74
2023-01-09T02:32:55.170Z,5.86
2023-01-09T02:35:39.706Z,5.83
2023-01-09T02:38:15.379Z,5.74
2023-01-09T02:41:03.717Z,5.70
2023-01-09T02:43:32.324Z,5.73
2023-01-09T02:46:00.526Z,5.70
2023-01-09T02:48:28.547Z,5.68
2023-01-09T02:51:07.707Z,5.64
2023-01-09T02:53:46.637Z,5.62
2023-01-09T02:56:28.629Z,5.56
2023-01-09T02:59:23.513Z,5.58
2023-01-09T03:02:22.696Z,5.51
2023-01-09T03:05:06.795Z,5.57
2023-01-09T03:07:40.303Z,5.58
2023-01-09T03:10:16.059Z,5.49
2023-01-09T03:12:44.925Z,5.61
2023-01-09T03:15:15.074Z,5.62
2023-01-09T03:17:47.057Z,5.61
2023-01-09T03:20:17.999Z,5.55
2023-01-09T03:22:55.433Z,5.49
2023-01-09T03:25:22.577Z,5.47
2023-01-09T03:27:56.252Z,5.52
2023-01-09T03:30:23.309Z,5.59
2023-01-09T03:32:49.942Z,5.56
2023-01-09T03:35:16.558Z,5.53
2023-01-09T03:37:43.250Z,5.56
2023-01-09T03:40:10.794Z,5.49
2023-01-09T03:42:37.538Z,5.52
2023-01-09T03:45:05.037Z,5.57
2023-01-09T03:47:32.082Z,5.54
2023-01-09T03:49:59.243Z,5.61
2023-01-09T03:52:34.096Z,5.55
2023-01-09T03:55:02.951Z,5.60
2023-01-09T03:57:29.702Z,5.78
2023-01-09T03:59:56.514Z,5.94
2023-01-09T04:02:24.608Z,6.07
2023-01-09T04:04:52.684Z,6.17
2023-01-09T04:07:20.081Z,6.35
2023-01-09T04:09:51.387Z,6.45
2023-01-09T04:12:18.300Z,6.50
2023-01-09T04:14:44.957Z,6.49
2023-01-09T04:17:12.458Z,6.68
2023-01-09T04:19:39.171Z,6.63
2023-01-09T04:22:06.179Z,6.69
2023-01-09T04:24:33.065Z,6.78
2023-01-09T04:27:01.068Z,6.77
2023-01-09T04:29:27.771Z,6.78
2023-01-09T04:31:54.720Z,6.77
2023-01-09T04:34:25.661Z,6.87
2023-01-09T04:36:53.242Z,6.90
2023-01-09T04:39:19.934Z,6.98
2023-01-09T04:41:49.602Z,7.04
2023-01-09T04:44:28.728Z,7.01
2023-01-09T04:46:58.976Z,7.06
2023-01-09T04:49:26.098Z,7.04
2023-01-09T04:51:53.658Z,7.16
2023-01-09T04:54:20.957Z,7.22
2023-01-09T04:56:49.325Z,7.14
2023-01-09T04:59:16.204Z,7.22
2023-01-09T05:01:43.333Z,7.37
2023-01-09T05:04:11.229Z,7.32
2023-01-09T05:06:37.957Z,7.40
2023-01-09T05:09:04.715Z,7.34
2023-01-09T05:11:31.518Z,7.36
2023-01-09T05:13:58.345Z,7.46
2023-01-09T05:16:27.905Z,7.38
2023-01-09T05:18:57.171Z,7.43
2023-01-09T05:21:24.647Z,7.41
2023-01-09T05:23:51.753Z,7.46
2023-01-09T05:26:23.268Z,7.58
2023-01-09T05:28:56.374Z,7.59
2023-01-09T05:31:25.554Z,7.54
2023-01-09T05:33:53.019Z,7.65
2023-01-09T05:36:19.676Z,7.64
2023-01-09T05:38:46.322Z,7.72
2023-01-09T05:41:13.040Z,7.63
2023-01-09T05:43:39.992Z,7.56
2023-01-09T05:46:06.923Z,7.56
2023-01-09T05:48:33.848Z,7.71
2023-01-09T05:51:00.542Z,7.62
2023-01-09T05:53:27.139Z,7.74
2023-01-09T05:55:53.884Z,7.72
2023-01-09T05:58:21.178Z,7.80
2023-01-09T06:00:48.635Z,7.81
2023-01-09T06:03:15.332Z,7.80
2023-01-09T06:05:41.990Z,7.79
2023-01-09T06:08:09.093Z,7.79
2023-01-09T06:10:35.962Z,7.90
2023-01-09T06:13:02.932Z,7.87
2023-01-09T06:15:29.668Z,7.95
2023-01-09T06:17:56.286Z,8.04
2023-01-09T06:20:22.927Z,8.15
2023-01-09T06:22:52.291Z,8.09
2023-01-09T06:25:20.213Z,8.18
2023-01-09T06:27:47.102Z,8.14
2023-01-09T06:30:14.091Z,8.30
2023-01-09T06:32:40.891Z,8.22
2023-01-09T06:35:08.233Z,8.21
2023-01-09T06:37:35.133Z,8.24
2023-01-09T06:40:02.103Z,8.25
2023-01-09T06:42:28.857Z,8.15
2023-01-09T06:44:55.616Z,8.09
2023-01-09T06:47:22.357Z,8.03
2023-01-09T06:49:49.080Z,7.92
2023-01-09T06:52:15.789Z,8.00
2023-01-09T06:54:42.620Z,7.99
2023-01-09T06:57:10.713Z,7.86
2023-01-09T06:59:37.473Z,7.91
2023-01-09T07:02:04.222Z,7.87
2023-01-09T07:04:31.225Z,7.96
2023-01-09T07:06:57.885Z,7.81
2023-01-09T07:09:24.646Z,7.78
2023-01-09T07:11:51.319Z,7.81
2023-01-09T07:14:19.332Z,7.86
2023-01-09T07:16:45.962Z,7.88
2023-01-09T07:19:12.927Z,7.81
2023-01-09T07:21:39.669Z,7.85
2023-01-09T07:24:06.558Z,7.78
2023-01-09T07:26:33.627Z,7.88
2023-01-09T07:29:00.379Z,7.85
2023-01-09T07:31:27.129Z,7.80
2023-01-09T07:33:53.990Z,7.91
2023-01-09T07:36:20.827Z,7.81
2023-01-09T07:38:47.549Z,7.78
2023-01-09T07:41:14.423Z,7.87
2023-01-09T07:43:41.063Z,7.83
2023-01-09T07:46:07.852Z,7.78
2023-01-09T07:48:34.664Z,7.78
2023-01-09T07:51:01.366Z,7.83
2023-01-09T07:53:28.145Z,7.77
2023-01-09T07:55:54.995Z,7.84
2023-01-09T07:58:22.036Z,7.84
2023-01-09T08:00:51.214Z,7.90
2023-01-09T08:03:17.943Z,7.88
2023-01-09T08:05:45.987Z,7.81
2023-01-09T08:08:15.751Z,7.80
2023-01-09T08:10:42.770Z,7.87
2023-01-09T08:13:11.782Z,7.90
2023-01-09T08:15:38.731Z,7.91
2023-01-09T08:18:06.228Z,7.75
2023-01-09T08:20:33.204Z,7.84
2023-01-09T08:23:00.115Z,7.92
2023-01-09T08:25:27.039Z,7.99
2023-01-09T08:27:53.889Z,7.98
2023-01-09T08:30:23.655Z,8.10
2023-01-09T08:32:54.254Z,8.00
2023-01-09T08:35:23.775Z,8.12
2023-01-09T08:37:54.263Z,8.07
2023-01-09T08:40:23.828Z,8.17
2023-01-09T08:43:12.176Z,8.06
2023-01-09T08:46:00.155Z,8.08
2023-01-09T08:48:27.015Z,8.14
2023-01-09T08:50:54.309Z,8.17
2023-01-09T08:53:24.222Z,8.20
2023-01-09T08:55:51.868Z,8.14
2023-01-09T08:58:18.456Z,8.06
2023-01-09T09:00:45.231Z,8.18
2023-01-09T09:03:12.305Z,8.14
2023-01-09T09:05:39.154Z,8.20
2023-01-09T09:08:07.095Z,8.20
2023-01-09T09:10:33.980Z,8.18
2023-01-09T09:13:01.769Z,8.21
2023-01-09T09:15:29.590Z,8.18
2023-01-09T09:17:58.755Z,8.26
2023-01-09T09:20:28.572Z,8.37
2023-01-09T09:22:55.481Z,8.34
2023-01-09T09:25:23.085Z,8.36
2023-01-09T09:27:50.368Z,8.28
2023-01-09T09:30:19.085Z,8.40
2023-01-09T09:32:46.584Z,8.46
2023-01-09T09:35:13.511Z,8.36
2023-01-09T09:37:40.431Z,8.44
2023-01-09T09:40:18.700Z,8.33
2023-01-09T09:43:35.127Z,8.46
2023-01-09T09:46:23.200Z,8.50
2023-01-09T09:48:59.395Z,8.49
2023-01-09T09:51:31.397Z,8.47
2023-01-09T09:54:02.237Z,8.42
2023-01-09T09:56:34.693Z,8.42
2023-01-09T09:59:06.734Z,8.40
2023-01-09T10:01:41.082Z,8.49
2023-01-09T10:04:14.290Z,8.65
2023-01-09T10:06:44.611Z,8.61
2023-01-09T10:09:34.140Z,8.59
2023-01-09T10:12:30.614Z,8.49
2023-01-09T10:15:00.090Z,8.55
2023-01-09T10:17:44.314Z,8.55
2023-01-09T10:20:35.890Z,8.57
2023-01-09T10:23:02.462Z,8.63
2023-01-09T10:25:45.112Z,8.69
2023-01-09T10:28:33.734Z,8.74
2023-01-09T10:31:21.642Z,8.77
2023-01-09T10:34:22.994Z,8.89
2023-01-09T10:36:49.648Z,8.96
2023-01-09T10:39:24.768Z,9.00
2023-01-09T10:41:57.625Z,9.02
2023-01-09T10:44:38.745Z,8.99
2023-01-09T10:47:17.301Z,9.04
2023-01-09T10:49:45.888Z,8.98
2023-01-09T10:52:19.482Z,8.93
2023-01-09T10:54:55.843Z,9.02
2023-01-09T10:57:40.298Z,9.04
2023-01-09T11:00:19.280Z,9.03
2023-01-09T11:02:47.285Z,9.08
2023-01-09T11:05:24.748Z,9.28
2023-01-09T11:07:57.371Z,9.33
2023-01-09T11:10:47.276Z,9.14
2023-01-09T11:13:26.514Z,9.16
2023-01-09T11:16:17.761Z,9.32
2023-01-09T11:18:52.066Z,9.50
2023-01-09T11:21:32.833Z,9.61
2023-01-09T11:24:18.552Z,9.66
2023-01-09T11:26:50.445Z,9.54
2023-01-09T11:29:26.999Z,9.36
2023-01-09T11:31:58.873Z,9.23
2023-01-09T11:34:32.126Z,9.20
2023-01-09T11:37:09.726Z,9.19
2023-01-09T11:39:41.318Z,9.37
2023-01-09T11:42:20.007Z,9.48
2023-01-09T11:44:47.103Z,9.39
2023-01-09T11:47:39.205Z,9.26
2023-01-09T11:50:20.711Z,9.46
2023-01-09T11:53:13.373Z,9.62
2023-01-09T11:55:42.860Z,9.77
2023-01-09T11:58:16.733Z,9.67
2023-01-09T12:01:04.371Z,9.58
2023-01-09T12:03:34.010Z,9.46
2023-01-09T12:06:25.608Z,9.22
2023-01-09T12:09:02.356Z,9.10
2023-01-09T12:11:34.259Z,8.98
2023-01-09T12:14:24.042Z,8.99
2023-01-09T12:17:04.667Z,9.10
2023-01-09T12:19:59.090Z,9.30
2023-01-09T12:23:05.442Z,9.51
2023-01-09T12:25:35.035Z,9.57
2023-01-09T12:28:36.058Z,9.71
2023-01-09T12:31:58.201Z,9.92
2023-01-09T12:34:56.450Z,9.85
2023-01-09T12:37:43.590Z,9.66
2023-01-09T12:40:19.310Z,9.63
2023-01-09T12:42:58.508Z,9.44
2023-01-09T12:45:50.844Z,9.40
2023-01-09T12:48:35.311Z,9.37
2023-01-09T12:51:17.470Z,9.56
2023-01-09T12:53:51.404Z,9.58
2023-01-09T12:56:25.055Z,9.64
2023-01-09T12:59:00.524Z,9.70
2023-01-09T13:01:32.620Z,9.52
2023-01-09T13:04:24.346Z,9.34
2023-01-09T13:07:11.644Z,9.39
2023-01-09T13:10:07.829Z,9.39
2023-01-09T13:12:39.612Z,9.50
2023-01-09T13:15:27.995Z,9.62
2023-01-09T13:18:07.938Z,9.56
2023-01-09T13:20:39.683Z,9.75
2023-01-09T13:23:07.021Z,9.61
2023-01-09T13:25:44.056Z,9.68
2023-01-09T13:28:23.260Z,9.63
2023-01-09T13:31:24.123Z,9.58
2023-01-09T13:33:56.764Z,9.47
2023-01-09T13:36:33.131Z,9.60
2023-01-09T13:39:02.149Z,9.72
2023-01-09T13:41:48.556Z,9.75
2023-01-09T13:44:18.164Z,9.89
2023-01-09T13:46:47.694Z,9.78
2023-01-09T13:49:33.541Z,9.80
2023-01-09T13:52:05.137Z,9.81
2023-01-09T13:54:47.204Z,9.71
2023-01-09T13:57:19.933Z,9.69
2023-01-09T13:59:50.161Z,9.56
2023-01-09T14:02:35.315Z,9.37
2023-01-09T14:05:04.404Z,9.27
2023-01-09T14:07:33.820Z,9.08
2023-01-09T14:10:03.530Z,9.00
2023-01-09T14:12:41.599Z,8.83
2023-01-09T14:15:26.627Z,8.78
2023-01-09T14:18:24.680Z,8.72
2023-01-09T14:23:52.889Z,8.72
2023-01-09T14:26:41.562Z,8.60
2023-01-09T14:29:36.287Z,8.54
2023-01-09T14:32:29.789Z,8.52
2023-01-09T14:35:15.435Z,8.49
2023-01-09T14:37:43.551Z,8.55
2023-01-09T14:40:23.458Z,8.46
2023-01-09T14:42:54.743Z,8.37
2023-01-09T14:45:27.093Z,8.39
2023-01-09T14:48:03.181Z,8.07
2023-01-09T14:50:38.053Z,7.83
2023-01-09T14:53:12.433Z,7.68
2023-01-09T14:55:42.239Z,7.63
2023-01-09T14:58:12.876Z,7.64
2023-01-09T15:01:01.770Z,7.73
2023-01-09T15:03:46.635Z,7.63
2023-01-09T15:06:23.977Z,7.63
2023-01-09T15:09:02.353Z,7.64
2023-01-09T15:11:29.953Z,7.62
2023-01-09T15:14:00.171Z,7.64
2023-01-09T15:16:28.382Z,7.61
2023-01-09T15:19:02.270Z,7.63
2023-01-09T15:21:31.018Z,7.48
2023-01-09T15:24:28.645Z,7.46
2023-01-09T15:26:58.824Z,7.39
2023-01-09T15:29:26.771Z,7.42
2023-01-09T15:32:28.310Z,7.38
2023-01-09T15:34:56.842Z,7.22
2023-01-09T15:37:33.310Z,7.30
2023-01-09T15:40:05.234Z,7.24
2023-01-09T15:42:57.161Z,7.17
2023-01-09T15:45:41.529Z,7.16
2023-01-09T15:48:20.645Z,7.12
2023-01-09T15:50:49.747Z,7.06
2023-01-09T15:53:20.087Z,6.95
2023-01-09T15:56:25.127Z,6.97
2023-01-09T15:58:55.603Z,6.93
2023-01-09T16:01:38.373Z,6.75
2023-01-09T16:04:12.563Z,6.79
2023-01-09T16:06:49.042Z,6.84
2023-01-09T16:09:17.320Z,6.84
2023-01-09T16:11:52.079Z,6.96
2023-01-09T16:14:41.893Z,7.11
2023-01-09T16:17:17.033Z,7.22
2023-01-09T16:19:50.149Z,7.34
2023-01-09T16:22:56.294Z,7.37
2023-01-09T16:25:34.938Z,7.52
2023-01-09T16:28:26.783Z,7.56
2023-01-09T16:30:57.143Z,7.59
2023-01-09T16:33:29.243Z,7.62
2023-01-09T16:35:58.371Z,7.58
2023-01-09T16:38:28.468Z,7.64
2023-01-09T16:41:24.013Z,7.66
2023-01-09T16:43:52.036Z,7.63
2023-01-09T16:46:21.032Z,7.51
2023-01-09T16:48:48.167Z,7.52
2023-01-09T16:51:22.811Z,7.63
2023-01-09T16:53:50.066Z,7.70
2023-01-09T16:56:23.629Z,7.70
2023-01-09T16:58:50.965Z,7.75
2023-01-09T17:01:18.200Z,7.74
2023-01-09T17:03:45.175Z,7.77
2023-01-09T17:06:32.264Z,7.70
2023-01-09T17:08:59.081Z,7.70
2023-01-09T17:11:31.988Z,7.67
2023-01-09T17:13:59.809Z,7.59
2023-01-09T17:16:28.027Z,7.60
2023-01-09T17:18:55.467Z,7.48
2023-01-09T17:21:25.080Z,7.53
2023-01-09T17:24:10.599Z,7.30
2023-01-09T17:26:57.610Z,7.29
2023-01-09T17:29:24.650Z,7.13
2023-01-09T17:31:51.323Z,7.21
2023-01-09T17:34:18.220Z,7.23
2023-01-09T17:36:45.332Z,7.18
2023-01-09T17:39:17.148Z,7.13
2023-01-09T17:41:44.300Z,7.15
2023-01-09T17:44:12.049Z,7.00
2023-01-09T17:46:43.952Z,6.83
2023-01-09T17:49:17.627Z,6.92
2023-01-09T17:51:44.584Z,6.92
2023-01-09T17:54:11.820Z,6.87
2023-01-09T17:56:42.599Z,6.86
2023-01-09T17:59:14.149Z,6.77
2023-01-09T18:01:41.909Z,6.69
2023-01-09T18:04:09.838Z,6.79
2023-01-09T18:06:37.129Z,6.86
2023-01-09T18:09:05.213Z,6.95
2023-01-09T18:11:32.167Z,6.97
2023-01-09T18:13:59.535Z,7.12
2023-01-09T18:16:28.646Z,7.00
2023-01-09T18:18:59.310Z,6.92
2023-01-09T18:21:28.040Z,7.00
2023-01-09T18:23:59.352Z,7.10
2023-01-09T18:26:42.301Z,7.07
2023-01-09T18:29:11.594Z,7.08
2023-01-09T18:31:38.563Z,7.15
2023-01-09T18:34:07.379Z,7.09
2023-01-09T18:36:34.206Z,7.16
2023-01-09T18:39:03.179Z,7.11
2023-01-09T18:41:31.322Z,7.11
2023-01-09T18:44:00.548Z,7.25
2023-01-09T18:46:31.980Z,7.19
2023-01-09T18:49:04.445Z,7.23
2023-01-09T18:51:36.772Z,7.15
2023-01-09T18:54:04.080Z,7.16
2023-01-09T18:56:30.961Z,7.13
2023-01-09T18:58:58.463Z,6.98
2023-01-09T19:01:27.911Z,7.09
2023-01-09T19:03:59.773Z,7.06
2023-01-09T19:06:28.308Z,7.03
2023-01-09T19:08:56.786Z,7.10
2023-01-09T19:11:27.467Z,6.96
2023-01-09T19:13:56.406Z,7.09
2023-01-09T19:16:23.435Z,6.99
2023-01-09T19:18:50.362Z,7.17
2023-01-09T19:21:20.549Z,7.20
2023-01-09T19:23:48.449Z,7.25
2023-01-09T19:26:20.586Z,7.31
2023-01-09T19:28:47.959Z,7.26
2023-01-09T19:31:14.931Z,7.28
2023-01-09T19:33:42.467Z,7.36
2023-01-09T19:36:10.229Z,7.28
2023-01-09T19:38:37.102Z,7.38
2023-01-09T19:41:17.834Z,7.39
2023-01-09T19:43:45.653Z,7.32
2023-01-09T19:46:18.606Z,7.31
2023-01-09T19:48:45.882Z,7.31
2023-01-09T19:51:13.802Z,7.37
2023-01-09T19:53:40.608Z,7.34
2023-01-09T19:56:15.649Z,7.36
2023-01-09T19:58:43.682Z,7.25
2023-01-09T20:01:14.913Z,7.16
2023-01-09T20:03:46.852Z,7.13
2023-01-09T20:06:19.050Z,7.02
2023-01-09T20:08:47.805Z,7.04
2023-01-09T20:11:15.672Z,6.99
2023-01-09T20:13:42.937Z,7.04
2023-01-09T20:16:19.672Z,7.05
2023-01-09T20:18:47.267Z,6.86
2023-01-09T20:21:21.673Z,6.86
2023-01-09T20:23:49.497Z,6.82
2023-01-09T20:26:17.177Z,6.77
2023-01-09T20:28:45.013Z,6.79
2023-01-09T20:31:13.572Z,6.81
2023-01-09T20:33:40.888Z,7.04
2023-01-09T20:36:09.950Z,6.98
2023-01-09T20:38:38.894Z,7.05
2023-01-09T20:41:23.119Z,7.07
2023-01-09T20:43:57.820Z,7.14
2023-01-09T20:46:29.813Z,7.27
2023-01-09T20:48:58.580Z,7.39
2023-01-09T20:51:28.650Z,7.31
2023-01-09T20:53:58.568Z,7.31
2023-01-09T20:56:32.741Z,7.40
2023-01-09T20:59:00.593Z,7.29
2023-01-09T21:01:28.446Z,7.41
2023-01-09T21:03:58.474Z,7.20
2023-01-09T21:06:27.747Z,7.11
2023-01-09T21:08:54.634Z,7.24
2023-01-09T21:11:22.229Z,7.14
2023-01-09T21:13:49.917Z,6.97
2023-01-09T21:16:20.153Z,6.92
2023-01-09T21:18:48.036Z,6.85
2023-01-09T21:21:21.424Z,6.86
2023-01-09T21:23:53.656Z,6.87
2023-01-09T21:26:24.485Z,6.86
2023-01-09T21:28:54.975Z,6.91
2023-01-09T21:31:33.209Z,6.93
2023-01-09T21:34:05.930Z,7.04
2023-01-09T21:36:32.942Z,7.09
2023-01-09T21:39:00.222Z,7.11
2023-01-09T21:41:46.899Z,6.98
2023-01-09T21:44:33.129Z,7.10
2023-01-09T21:47:01.334Z,7.04
2023-01-09T21:49:31.615Z,6.89
2023-01-09T21:51:58.780Z,6.88
2023-01-09T21:54:33.224Z,6.71
2023-01-09T21:57:00.797Z,6.66
2023-01-09T21:59:29.164Z,6.54
2023-01-09T22:01:56.417Z,6.42
2023-01-09T22:04:29.138Z,6.29
2023-01-09T22:06:56.592Z,6.19
2023-01-09T22:09:23.408Z,6.08
2023-01-09T22:11:50.116Z,6.00
2023-01-09T22:14:18.463Z,5.95
2023-01-09T22:16:45.796Z,5.94
2023-01-09T22:19:13.765Z,5.80
2023-01-09T22:21:40.453Z,5.74
2023-01-09T22:24:07.727Z,5.74
2023-01-09T22:26:35.409Z,5.70
2023-01-09T22:29:02.161Z,5.62
2023-01-09T22:31:29.558Z,5.61
2023-01-09T22:34:02.498Z,5.60
2023-01-09T22:36:31.106Z,5.59
2023-01-09T22:38:59.655Z,5.59
2023-01-09T22:41:31.867Z,5.57
2023-01-09T22:43:59.231Z,5.43
2023-01-09T22:46:26.597Z,5.47
2023-01-09T22:48:54.581Z,5.51
2023-01-09T22:51:21.831Z,5.62
2023-01-09T22:53:50.203Z,5.60
2023-01-09T22:56:19.727Z,5.67
2023-01-09T22:58:51.726Z,5.65
2023-01-09T23:01:19.425Z,5.50
2023-01-09T23:03:47.101Z,5.39
2023-01-09T23:06:16.893Z,5.29
2023-01-09T23:08:44.443Z,5.31
2023-01-09T23:11:18.015Z,5.31
2023-01-09T23:13:44.889Z,5.29
2023-01-09T23:16:11.801Z,5.31
2023-01-09T23:18:38.571Z,5.32
2023-01-09T23:21:06.693Z,5.22
2023-01-09T23:23:33.354Z,5.22
2023-01-09T23:26:04.854Z,5.14
2023-01-09T23:28:34.494Z,5.18
2023-01-09T23:31:01.239Z,5.15
2023-01-09T23:33:27.950Z,5.38
2023-01-09T23:35:54.701Z,5.36
2023-01-09T23:38:21.621Z,5.31
2023-01-09T23:40:48.291Z,5.38
2023-01-09T23:43:15.409Z,5.36
2023-01-09T23:45:45.285Z,5.38
2023-01-09T23:48:15.129Z,5.34
2023-01-09T23:50:53.398Z,5.46
2023-01-09T23:53:22.141Z,5.38
2023-01-09T23:55:49.865Z,5.58
2023-01-09T23:58:16.975Z,5.70
